Terminal Aerodrome Forecast
Issued by NWS

Home | Current Version | Previous Version | Text Only | Print | Product List | Glossary On
Versions: 1 2 3 4 5 6 7 8 9 10 11 12 13 14 15
000
FTUS43 KABR 012000 AAA
TAFMBG
TAF AMD
KMBG 012045Z 0121/0218 15012KT P6SM VCSH FEW080
     FM020000 10012KT P6SM VCTS SCT060CB SCT250
     FM020600 12008KT P6SM OVC250=

USA.gov is the U.S. government's official web portal to all federal, state and local government web resources and services.